Bellevue, WA (98004)

7:44 PM PDT on September 01, 2015 (GMT -0700)
Bellevue - Downtown Park | | Change Station
CLOSE
Current Station
Personal Weather Station
Location: Bellevue, WA
Elevation: 100 ft
Nearby Weather Stations

Elev 100 ft 47.61 °N, 122.20 °W | Updated 4 seconds ago

Overcast
Overcast
59.0 °F
Feels Like 59.0 °F
N
2.0
Wind Variable Wind from NE
Gusts 2.0 mph

Today
High -- | Low -- °F
--% Chance of Precip.
Yesterday
High -- | Low -- °F
Precip. -- in
6:27 AM 7:49 PM
Waning Gibbous, 84% visible
Pressure 29.78 in
Visibility 10.0 miles
Clouds Scattered Clouds 1200 ft
Mostly Cloudy 3600 ft
Overcast 5500 ft
Dew Point 57 °F
Humidity 93%
Rainfall 0.20 in
Snow Depth Not available.
UV 0 out of 12
Pollen .40 out of 12
Air Quality Not available.
Flu Activity Not available.
METAR KBFI 020153Z 15008G17KT 10SM SCT012 BKN036 OVC055 17/14 A2978 RMK AO2 RAE08B24E50 SLP085 P0000 T01670139
Pressure 29.78 in
Visibility 10.0 miles
Clouds Scattered Clouds 1200 ft
Mostly Cloudy 3600 ft
Overcast 5500 ft
Dew Point 57 °F
Humidity 93%
Rainfall 0.20 in
Snow Depth Not available.
UV 0 out of 12
Pollen .40 out of 12
Air Quality Not available.
Flu Activity Not available.
METAR KBFI 020153Z 15008G17KT 10SM SCT012 BKN036 OVC055 17/14 A2978 RMK AO2 RAE08B24E50 SLP085 P0000 T01670139

10-Day Weather Forecast

×

Almanac

Astronomy

Sep. 01, 2015 Rise Set
Actual Time
Civil Twilight
Nautical Twilight
Astronomical Twilight
Moon
Length of Visible Light
Length of Day
Tomorrow will be .
, % of the Moon is Illuminated

Today's Extremes

State Highs State Lows

Community

WunderPhotos

Upload Photos

1,851,682 photos uploaded!

WunderBlogs® & News

Nearby

Air Quality

  Air Quality AQ Index Pollutant
Not available.

Snow Depth

Station Depth Elevation

Earthquake Activity

City Distance Mag. Time & Date
Minimum magnitude displayed is 2.5.

Coastal Water Temperatures

Place Temperature

Stations

Nearby Weather Stations

Station Location Temp. Windchill Dew Point Humidity Wind Precip. Elev Updated Type